Time;durP1;ratioP1;P1;durP2;ratioP2;P2;SDS_P1;SDS_P2;PMS_P1;PMS_P2;Temp;Humidity;BMP_temperature;BMP_pressure;BME280_temperature;BME280_humidity;BME280_pressure;Samples;Min_cycle;Max_cycle;Signal;HPM_P1;HPM_P2
2021/09/13 00:01:40;;;;;;;15.37;13.73;;;;;;;;;;5054814;28;20746;-47
2021/09/13 00:04:06;;;;;;;17.13;14.30;;;;;;;;;;5054885;28;20406;-49
2021/09/13 00:06:32;;;;;;;14.87;13.33;;;;;;;;;;5054662;28;20460;-46
2021/09/13 00:08:58;;;;;;;20.87;15.63;;;;;;;;;;5053099;28;20431;-46
2021/09/13 00:11:24;;;;;;;15.47;13.87;;;;;;;;;;5054720;28;20927;-46
2021/09/13 00:13:50;;;;;;;16.70;15.00;;;;;;;;;;5052964;28;20504;-46
2021/09/13 00:16:16;;;;;;;19.43;15.40;;;;;;;;;;5054429;28;20412;-46
2021/09/13 00:18:42;;;;;;;16.47;14.70;;;;;;;;;;5054509;28;20449;-46
2021/09/13 00:21:08;;;;;;;19.33;14.50;;;;;;;;;;5054593;28;20413;-46
2021/09/13 00:23:34;;;;;;;17.03;15.30;;;;;;;;;;5054581;28;20387;-46
2021/09/13 00:26:00;;;;;;;25.97;15.60;;;;;;;;;;5054203;28;20455;-46
2021/09/13 00:28:26;;;;;;;20.17;14.93;;;;;;;;;;5053332;28;20396;-46
2021/09/13 00:30:52;;;;;;;22.30;15.47;;;;;;;;;;5034339;28;20406;-47
2021/09/13 00:33:18;;;;;;;17.20;15.37;;;;;;;;;;5034347;28;20406;-46
2021/09/13 00:35:44;;;;;;;21.17;16.57;;;;;;;;;;5016438;28;20441;-48
2021/09/13 00:38:10;;;;;;;17.80;15.90;;;;;;;;;;5034183;28;20869;-49
2021/09/13 00:40:36;;;;;;;18.57;16.57;;;;;;;;;;5034372;28;20403;-46
2021/09/13 00:43:03;;;;;;;18.27;15.43;;;;;;;;;;5034255;28;20464;-46
2021/09/13 00:45:29;;;;;;;20.03;16.40;;;;;;;;;;5033983;28;20461;-47
2021/09/13 00:47:56;;;;;;;20.00;17.37;;;;;;;;;;5016308;28;20422;-46
2021/09/13 00:50:22;;;;;;;22.33;16.00;;;;;;;;;;5034152;28;20428;-46
2021/09/13 00:52:53;;;;;;;18.50;16.50;;;;;;;;;;5034095;28;20437;-46
2021/09/13 00:55:19;;;;;;;18.23;16.33;;;;;;;;;;5034953;28;20582;-46
2021/09/13 00:57:45;;;;;;;23.00;18.27;;;;;;;;;;5034138;28;20430;-46
2021/09/13 01:00:12;;;;;;;19.90;16.20;;;;;;;;;;5033958;28;21105;-46
2021/09/13 01:02:38;;;;;;;18.67;16.00;;;;;;;;;;5032942;28;20406;-46
2021/09/13 01:05:04;;;;;;;19.77;17.67;;;;;;;;;;5033130;28;21174;-46
2021/09/13 01:07:31;;;;;;;25.00;18.00;;;;;;;;;;5033594;28;20995;-46
2021/09/13 01:09:57;;;;;;;21.20;15.60;;;;;;;;;;5033823;28;20420;-46
2021/09/13 01:12:23;;;;;;;26.60;16.50;;;;;;;;;;5033602;28;20874;-47
2021/09/13 01:14:49;;;;;;;19.63;16.30;;;;;;;;;;5033462;28;20398;-46
2021/09/13 01:17:15;;;;;;;22.17;16.97;;;;;;;;;;5033625;28;20934;-47
2021/09/13 01:19:41;;;;;;;19.93;16.53;;;;;;;;;;5033551;28;20406;-47
2021/09/13 01:22:10;;;;;;;19.77;15.70;;;;;;;;;;5033505;28;20380;-47
2021/09/13 01:24:36;;;;;;;21.90;16.67;;;;;;;;;;5017594;28;20450;-46
2021/09/13 01:27:04;;;;;;;20.00;15.40;;;;;;;;;;5053467;28;20456;-46
2021/09/13 01:29:30;;;;;;;17.80;15.27;;;;;;;;;;5035540;28;20425;-47
2021/09/13 01:31:56;;;;;;;20.40;16.10;;;;;;;;;;5033352;28;20493;-46
2021/09/13 01:34:22;;;;;;;19.03;16.43;;;;;;;;;;5033283;28;20406;-46
2021/09/13 01:36:48;;;;;;;19.90;17.80;;;;;;;;;;5032792;28;20421;-47
2021/09/13 01:39:14;;;;;;;23.17;18.60;;;;;;;;;;5033121;28;20444;-49
2021/09/13 01:41:40;;;;;;;19.93;16.80;;;;;;;;;;5033151;28;20444;-46
2021/09/13 01:44:06;;;;;;;20.63;16.60;;;;;;;;;;5034143;28;20445;-46
2021/09/13 01:46:32;;;;;;;19.30;17.20;;;;;;;;;;5032844;28;20947;-46
2021/09/13 01:48:58;;;;;;;21.43;16.53;;;;;;;;;;5032961;28;20418;-46
2021/09/13 01:51:24;;;;;;;20.47;18.10;;;;;;;;;;5032822;28;20500;-46
2021/09/13 01:53:50;;;;;;;24.47;18.07;;;;;;;;;;5032892;28;20421;-46
2021/09/13 01:56:16;;;;;;;22.20;18.70;;;;;;;;;;5032726;28;20402;-46
2021/09/13 01:58:42;;;;;;;21.80;18.00;;;;;;;;;;5032691;28;20425;-46
2021/09/13 02:01:08;;;;;;;21.00;17.17;;;;;;;;;;5014973;28;20422;-47
2021/09/13 02:03:34;;;;;;;19.90;17.80;;;;;;;;;;5033828;28;20410;-49
2021/09/13 02:06:00;;;;;;;23.70;17.43;;;;;;;;;;5032386;28;20518;-46
2021/09/13 02:08:26;;;;;;;24.93;17.17;;;;;;;;;;5032929;28;20498;-46
2021/09/13 02:10:52;;;;;;;22.17;16.90;;;;;;;;;;5032568;28;20403;-46
2021/09/13 02:13:17;;;;;;;20.37;16.60;;;;;;;;;;5032047;28;20444;-46
2021/09/13 02:15:43;;;;;;;20.70;18.50;;;;;;;;;;5032441;28;20408;-46
2021/09/13 02:18:09;;;;;;;25.50;19.00;;;;;;;;;;5032361;28;20432;-46
2021/09/13 02:20:35;;;;;;;20.77;17.73;;;;;;;;;;5032399;28;20444;-46
2021/09/13 02:23:01;;;;;;;26.20;18.00;;;;;;;;;;5032301;28;20417;-47
2021/09/13 02:25:27;;;;;;;18.73;16.73;;;;;;;;;;5032103;28;20453;-49
2021/09/13 02:27:53;;;;;;;22.93;16.90;;;;;;;;;;5032238;28;20478;-46
2021/09/13 02:30:19;;;;;;;19.53;16.93;;;;;;;;;;5032261;28;20492;-46
2021/09/13 02:32:45;;;;;;;27.03;19.30;;;;;;;;;;5032294;28;20404;-46
2021/09/13 02:35:11;;;;;;;20.07;17.63;;;;;;;;;;5033039;28;20421;-46
2021/09/13 02:37:38;;;;;;;25.53;18.30;;;;;;;;;;5031991;28;20446;-46
2021/09/13 02:40:04;;;;;;;23.10;17.50;;;;;;;;;;5032232;28;20479;-46
2021/09/13 02:42:31;;;;;;;22.47;17.63;;;;;;;;;;5031977;28;20406;-46
2021/09/13 02:44:57;;;;;;;25.83;17.87;;;;;;;;;;5031870;28;20480;-49
2021/09/13 02:47:22;;;;;;;23.70;18.53;;;;;;;;;;5032033;28;20425;-49
2021/09/13 02:49:48;;;;;;;28.20;19.70;;;;;;;;;;5031966;28;20407;-47
2021/09/13 02:52:14;;;;;;;28.77;18.30;;;;;;;;;;5031920;28;20487;-46
2021/09/13 02:54:40;;;;;;;21.90;17.60;;;;;;;;;;5014286;28;20442;-46
2021/09/13 02:57:06;;;;;;;23.20;17.70;;;;;;;;;;5031891;28;20422;-46
2021/09/13 02:59:32;;;;;;;25.97;18.53;;;;;;;;;;5031872;28;20814;-46
2021/09/13 03:01:58;;;;;;;25.20;19.67;;;;;;;;;;5031780;28;20413;-46
2021/09/13 03:04:24;;;;;;;25.10;19.93;;;;;;;;;;5032733;28;20414;-47
2021/09/13 03:06:53;;;;;;;32.00;19.93;;;;;;;;;;5031554;28;20409;-48
2021/09/13 03:09:19;;;;;;;20.77;17.90;;;;;;;;;;5031778;28;20398;-46
2021/09/13 03:11:45;;;;;;;26.63;18.60;;;;;;;;;;5031681;28;20408;-47
2021/09/13 03:14:11;;;;;;;26.70;19.60;;;;;;;;;;5031769;28;20415;-47
2021/09/13 03:16:37;;;;;;;24.13;18.60;;;;;;;;;;5031560;28;20776;-46
2021/09/13 03:19:03;;;;;;;28.17;18.97;;;;;;;;;;5031559;28;20428;-49
2021/09/13 03:21:29;;;;;;;22.20;18.80;;;;;;;;;;5031644;28;20985;-46
2021/09/13 03:23:55;;;;;;;22.53;18.23;;;;;;;;;;5031700;28;20402;-46
2021/09/13 03:26:21;;;;;;;26.80;18.20;;;;;;;;;;5033757;28;20875;-46
2021/09/13 03:28:47;;;;;;;24.40;18.07;;;;;;;;;;5035583;28;20459;-46
2021/09/13 03:31:13;;;;;;;24.50;18.77;;;;;;;;;;5036636;28;20452;-46
2021/09/13 03:33:39;;;;;;;30.20;21.00;;;;;;;;;;5035603;28;20460;-47
2021/09/13 03:36:05;;;;;;;27.00;19.57;;;;;;;;;;5035367;28;20404;-46
2021/09/13 03:38:32;;;;;;;24.10;18.70;;;;;;;;;;5035298;28;20951;-46
2021/09/13 03:40:58;;;;;;;25.00;18.60;;;;;;;;;;5035342;28;20413;-49
2021/09/13 03:43:25;;;;;;;27.60;19.10;;;;;;;;;;5035356;28;20408;-48
2021/09/13 03:45:51;;;;;;;25.20;19.70;;;;;;;;;;5035095;28;20452;-49
2021/09/13 03:48:17;;;;;;;26.83;18.90;;;;;;;;;;5035139;28;20423;-48
2021/09/13 03:50:43;;;;;;;27.63;18.83;;;;;;;;;;5035310;28;20488;-49
2021/09/13 03:53:09;;;;;;;23.50;18.30;;;;;;;;;;5036018;28;20521;-46
2021/09/13 03:55:36;;;;;;;24.60;18.77;;;;;;;;;;5034970;28;20409;-46
2021/09/13 03:58:03;;;;;;;28.93;19.93;;;;;;;;;;5035077;28;20928;-46
2021/09/13 04:00:29;;;;;;;24.07;17.63;;;;;;;;;;5036121;28;21086;-47
2021/09/13 04:02:55;;;;;;;26.77;19.20;;;;;;;;;;5034882;28;20482;-46
2021/09/13 04:05:25;;;;;;;24.40;18.97;;;;;;;;;;5034727;28;20452;-46
2021/09/13 04:13:20;;;;;;;20.40;17.13;;;;;;;;;;5001318;28;20420;-46
2021/09/13 04:15:45;;;;;;;20.43;17.27;;;;;;;;;;5035162;28;20408;-48
2021/09/13 04:18:11;;;;;;;24.97;17.23;;;;;;;;;;5046717;28;20450;-46
2021/09/13 04:20:37;;;;;;;24.63;16.70;;;;;;;;;;5054597;28;20408;-47
2021/09/13 04:23:03;;;;;;;25.53;18.10;;;;;;;;;;5054567;28;20462;-47
2021/09/13 04:25:29;;;;;;;24.53;18.00;;;;;;;;;;5054283;28;20451;-49
2021/09/13 04:27:55;;;;;;;26.53;20.20;;;;;;;;;;5054422;28;20423;-49
2021/09/13 04:30:23;;;;;;;21.80;17.67;;;;;;;;;;5054481;28;20403;-45
2021/09/13 04:32:49;;;;;;;22.00;17.33;;;;;;;;;;5054411;28;20909;-46
2021/09/13 04:35:15;;;;;;;22.77;18.57;;;;;;;;;;5054273;28;20415;-46
2021/09/13 04:37:41;;;;;;;22.93;18.13;;;;;;;;;;5053785;28;20439;-46
2021/09/13 04:40:07;;;;;;;24.17;17.23;;;;;;;;;;5054205;28;20404;-46
2021/09/13 04:42:33;;;;;;;22.40;18.20;;;;;;;;;;5054178;28;20414;-46
2021/09/13 04:44:59;;;;;;;21.37;17.23;;;;;;;;;;5054072;28;20453;-46
2021/09/13 04:47:25;;;;;;;26.57;19.33;;;;;;;;;;5052636;28;20742;-46
2021/09/13 04:49:51;;;;;;;24.67;18.40;;;;;;;;;;5054087;28;20427;-46
2021/09/13 04:52:17;;;;;;;18.87;16.07;;;;;;;;;;5054003;28;20404;-47
2021/09/13 04:54:43;;;;;;;18.13;15.83;;;;;;;;;;5053887;28;20763;-48
2021/09/13 04:57:09;;;;;;;21.50;16.73;;;;;;;;;;5053608;28;20416;-45
2021/09/13 04:59:35;;;;;;;26.83;18.70;;;;;;;;;;5053873;28;20400;-46
2021/09/13 05:02:01;;;;;;;24.10;17.67;;;;;;;;;;5053813;28;20394;-46
2021/09/13 05:04:27;;;;;;;23.70;18.13;;;;;;;;;;5053836;28;20881;-46
2021/09/13 05:06:53;;;;;;;25.60;17.53;;;;;;;;;;5053530;28;20417;-46
2021/09/13 05:09:19;;;;;;;25.70;17.97;;;;;;;;;;5053656;28;20407;-46
2021/09/13 05:11:46;;;;;;;23.33;18.23;;;;;;;;;;5053636;28;20403;-45
2021/09/13 05:14:12;;;;;;;26.07;16.27;;;;;;;;;;5053705;28;20400;-46
2021/09/13 05:16:38;;;;;;;21.50;15.53;;;;;;;;;;5053408;28;20436;-46
2021/09/13 05:19:04;;;;;;;25.83;15.90;;;;;;;;;;5051787;28;20440;-45
2021/09/13 05:21:37;;;;;;;23.63;18.43;;;;;;;;;;5053399;28;20413;-45
2021/09/13 05:24:03;;;;;;;33.33;18.90;;;;;;;;;;5053436;28;20406;-48
2021/09/13 05:26:29;;;;;;;22.07;16.77;;;;;;;;;;5053135;28;21054;-48
2021/09/13 05:28:55;;;;;;;32.47;18.17;;;;;;;;;;5053249;28;20475;-46
2021/09/13 05:31:21;;;;;;;31.17;19.10;;;;;;;;;;5053307;28;20405;-46
2021/09/13 05:33:47;;;;;;;32.00;18.87;;;;;;;;;;5053368;28;20895;-46
2021/09/13 05:36:13;;;;;;;28.20;16.80;;;;;;;;;;5053093;28;20825;-46
2021/09/13 05:38:39;;;;;;;28.23;17.47;;;;;;;;;;5052874;28;20446;-46
2021/09/13 05:41:05;;;;;;;22.63;17.17;;;;;;;;;;5035306;28;20424;-47
2021/09/13 05:43:31;;;;;;;19.60;16.53;;;;;;;;;;5053113;28;20411;-46
2021/09/13 05:45:57;;;;;;;18.27;15.87;;;;;;;;;;5052792;28;20459;-46
2021/09/13 05:48:24;;;;;;;16.80;14.60;;;;;;;;;;5050285;28;20450;-46
2021/09/13 05:50:50;;;;;;;20.83;16.50;;;;;;;;;;5052880;28;20427;-46
2021/09/13 05:53:16;;;;;;;17.63;15.73;;;;;;;;;;5052847;28;20405;-46
2021/09/13 05:55:43;;;;;;;19.20;15.60;;;;;;;;;;5052644;28;20402;-46
2021/09/13 05:58:09;;;;;;;16.63;14.70;;;;;;;;;;5052746;28;20426;-46
2021/09/13 06:00:35;;;;;;;18.57;15.70;;;;;;;;;;5052722;28;20914;-49
2021/09/13 06:03:02;;;;;;;20.67;16.87;;;;;;;;;;5052634;28;20490;-46
2021/09/13 06:05:28;;;;;;;25.73;17.93;;;;;;;;;;5052375;28;20454;-49
2021/09/13 06:07:53;;;;;;;30.33;18.27;;;;;;;;;;5052460;28;21114;-46
2021/09/13 06:10:20;;;;;;;21.67;17.30;;;;;;;;;;5052492;28;20402;-46
2021/09/13 06:12:46;;;;;;;22.90;16.77;;;;;;;;;;5052476;28;20444;-46
2021/09/13 06:15:11;;;;;;;25.40;16.63;;;;;;;;;;5052456;28;20478;-46
2021/09/13 06:17:37;;;;;;;19.83;16.77;;;;;;;;;;5051373;28;20423;-46
2021/09/13 06:20:04;;;;;;;21.73;17.70;;;;;;;;;;5032521;28;20403;-46
2021/09/13 06:22:30;;;;;;;26.53;18.00;;;;;;;;;;5032268;28;20413;-46
2021/09/13 06:24:56;;;;;;;29.10;19.77;;;;;;;;;;5032357;28;20457;-46
2021/09/13 06:27:23;;;;;;;30.63;19.60;;;;;;;;;;5032135;28;20431;-46
2021/09/13 06:29:49;;;;;;;29.17;21.23;;;;;;;;;;5032345;28;20885;-46
2021/09/13 06:32:15;;;;;;;29.33;22.13;;;;;;;;;;5032300;28;20432;-46
2021/09/13 06:34:41;;;;;;;32.73;22.13;;;;;;;;;;5032196;28;20775;-46
2021/09/13 06:37:07;;;;;;;30.10;21.33;;;;;;;;;;5031772;28;20556;-46
2021/09/13 06:39:33;;;;;;;28.47;20.50;;;;;;;;;;5032172;28;20882;-47
2021/09/13 06:41:59;;;;;;;23.70;19.90;;;;;;;;;;5031200;28;20426;-46
2021/09/13 06:44:25;;;;;;;28.67;20.23;;;;;;;;;;5031650;28;20909;-47
2021/09/13 06:49:31;;;;;;;16.23;12.37;;;;;;;;;;5032544;28;20403;-46
2021/09/13 06:51:57;;;;;;;18.63;16.23;;;;;;;;;;5031136;28;20399;-46
2021/09/13 06:54:23;;;;;;;13.63;12.20;;;;;;;;;;5031421;28;20428;-48
2021/09/13 06:56:49;;;;;;;16.00;14.30;;;;;;;;;;5053112;28;20509;-48
2021/09/13 06:59:15;;;;;;;13.23;11.80;;;;;;;;;;5051204;28;20840;-48
2021/09/13 07:01:41;;;;;;;12.03;10.83;;;;;;;;;;5050888;28;20405;-48
2021/09/13 07:04:08;;;;;;;15.23;13.67;;;;;;;;;;5051156;28;20545;-48
2021/09/13 07:06:33;;;;;;;15.23;13.00;;;;;;;;;;5051406;28;20463;-48
2021/09/13 07:08:59;;;;;;;15.13;13.60;;;;;;;;;;5051561;28;20418;-48
2021/09/13 07:11:26;;;;;;;13.73;11.87;;;;;;;;;;5051615;28;20425;-48
2021/09/13 07:13:52;;;;;;;15.70;12.60;;;;;;;;;;5051646;28;20395;-48
2021/09/13 07:16:20;;;;;;;14.50;11.53;;;;;;;;;;5051523;28;20408;-48
2021/09/13 07:18:47;;;;;;;16.93;12.30;;;;;;;;;;5050059;28;20445;-48
2021/09/13 07:21:13;;;;;;;14.87;10.60;;;;;;;;;;5051251;28;20415;-48
2021/09/13 07:23:39;;;;;;;13.60;11.90;;;;;;;;;;5051517;28;20850;-48
2021/09/13 07:26:05;;;;;;;14.60;11.37;;;;;;;;;;5051275;28;20862;-48
2021/09/13 07:28:31;;;;;;;14.70;10.60;;;;;;;;;;5051450;28;20420;-48
2021/09/13 07:30:57;;;;;;;11.97;9.53;;;;;;;;;;5051433;28;20397;-49
2021/09/13 07:33:22;;;;;;;9.33;8.60;;;;;;;;;;5051536;28;20423;-48
2021/09/13 07:35:48;;;;;;;9.60;8.70;;;;;;;;;;5050474;28;20416;-48
2021/09/13 07:38:14;;;;;;;9.53;8.63;;;;;;;;;;5051337;28;20939;-48
2021/09/13 07:40:42;;;;;;;13.30;8.50;;;;;;;;;;5051388;28;20869;-48
2021/09/13 07:43:09;;;;;;;12.43;10.20;;;;;;;;;;5051363;28;20821;-48
2021/09/13 07:45:35;;;;;;;13.37;10.60;;;;;;;;;;5051079;28;20456;-49
2021/09/13 07:48:01;;;;;;;11.07;9.90;;;;;;;;;;5051114;28;20470;-48
2021/09/13 07:50:27;;;;;;;17.13;10.80;;;;;;;;;;5049737;28;20500;-49
2021/09/13 07:52:53;;;;;;;10.80;9.50;;;;;;;;;;5051212;28;20406;-48
2021/09/13 07:55:19;;;;;;;10.97;8.67;;;;;;;;;;5051158;28;20401;-49
2021/09/13 07:57:45;;;;;;;11.13;7.93;;;;;;;;;;5051162;28;20432;-49
2021/09/13 08:00:11;;;;;;;12.63;7.30;;;;;;;;;;5051217;28;20401;-49
2021/09/13 08:02:37;;;;;;;8.60;7.40;;;;;;;;;;5051066;28;20409;-49
2021/09/13 08:05:03;;;;;;;10.10;6.53;;;;;;;;;;5051075;28;20453;-49
2021/09/13 08:07:29;;;;;;;11.00;7.93;;;;;;;;;;5050974;28;20421;-49
2021/09/13 08:09:55;;;;;;;9.10;8.20;;;;;;;;;;5049473;28;20413;-49
2021/09/13 08:12:21;;;;;;;9.50;7.60;;;;;;;;;;5053186;28;20401;-49
2021/09/13 08:14:46;;;;;;;8.63;7.43;;;;;;;;;;5054694;28;20426;-49
2021/09/13 08:17:12;;;;;;;11.30;7.77;;;;;;;;;;5054528;28;20424;-48
2021/09/13 08:19:40;;;;;;;13.80;9.03;;;;;;;;;;5054637;28;20401;-49
2021/09/13 08:22:07;;;;;;;11.87;8.20;;;;;;;;;;5054669;28;20397;-49
2021/09/13 08:24:33;;;;;;;12.60;7.30;;;;;;;;;;5054682;28;20405;-49
2021/09/13 08:26:59;;;;;;;7.27;6.17;;;;;;;;;;5054233;28;20485;-48
2021/09/13 08:29:25;;;;;;;9.90;5.87;;;;;;;;;;5059516;28;20416;-49
2021/09/13 08:31:53;;;;;;;10.53;7.50;;;;;;;;;;5044776;28;20420;-48
2021/09/13 08:34:19;;;;;;;11.37;7.00;;;;;;;;;;5054422;28;20402;-48
2021/09/13 08:36:47;;;;;;;7.07;5.70;;;;;;;;;;5053959;28;20405;-49
2021/09/13 08:39:13;;;;;;;8.20;5.27;;;;;;;;;;5052968;28;20428;-49
2021/09/13 08:41:39;;;;;;;7.23;5.83;;;;;;;;;;5054104;28;20509;-49
2021/09/13 08:44:06;;;;;;;7.73;6.40;;;;;;;;;;5054082;28;20941;-50
2021/09/13 08:46:50;;;;;;;8.20;5.83;;;;;;;;;;5053939;28;20461;-49
2021/09/13 08:49:31;;;;;;;8.30;6.00;;;;;;;;;;5054166;28;20476;-48
2021/09/13 08:51:57;;;;;;;9.53;6.80;;;;;;;;;;5054125;28;20818;-49
2021/09/13 08:54:26;;;;;;;12.50;6.80;;;;;;;;;;5053883;28;20569;-49
2021/09/13 08:56:53;;;;;;;11.40;6.50;;;;;;;;;;5053632;28;20405;-49
2021/09/13 08:59:23;;;;;;;8.23;6.80;;;;;;;;;;5054112;28;20912;-48
2021/09/13 09:01:50;;;;;;;11.27;6.43;;;;;;;;;;5053636;28;20398;-48
2021/09/13 09:04:16;;;;;;;6.37;5.10;;;;;;;;;;5053673;28;20817;-49
2021/09/13 09:06:42;;;;;;;8.67;6.40;;;;;;;;;;5052124;28;20510;-48
2021/09/13 09:09:13;;;;;;;9.07;5.33;;;;;;;;;;5051880;28;20480;-48
2021/09/13 09:11:56;;;;;;;13.33;6.63;;;;;;;;;;5052964;28;20450;-49
2021/09/13 09:14:25;;;;;;;6.70;5.50;;;;;;;;;;5053648;28;20823;-48
2021/09/13 09:16:55;;;;;;;6.73;5.17;;;;;;;;;;5053424;28;20401;-48
2021/09/13 09:19:21;;;;;;;6.57;5.53;;;;;;;;;;5053528;28;20409;-49
2021/09/13 09:21:48;;;;;;;7.33;5.20;;;;;;;;;;5053514;28;20458;-49
2021/09/13 09:24:14;;;;;;;8.70;7.10;;;;;;;;;;5052340;28;20406;-49
2021/09/13 09:26:40;;;;;;;6.57;4.63;;;;;;;;;;5053202;28;20457;-49
2021/09/13 09:29:06;;;;;;;5.47;4.10;;;;;;;;;;5053343;28;20417;-48
2021/09/13 09:31:36;;;;;;;9.80;5.17;;;;;;;;;;5053302;28;20881;-49
2021/09/13 09:34:21;;;;;;;6.70;5.00;;;;;;;;;;5053228;28;20447;-49
2021/09/13 09:37:05;;;;;;;3.90;3.57;;;;;;;;;;5052829;28;20432;-49
2021/09/13 09:39:35;;;;;;;6.77;4.40;;;;;;;;;;5041429;28;20525;-49
2021/09/13 09:42:02;;;;;;;5.00;4.37;;;;;;;;;;5033145;28;20819;-49
2021/09/13 09:44:28;;;;;;;5.23;4.50;;;;;;;;;;5033136;28;20402;-49
2021/09/13 09:47:00;;;;;;;3.90;3.53;;;;;;;;;;5032833;28;20466;-49
2021/09/13 09:49:26;;;;;;;4.87;3.83;;;;;;;;;;5033155;28;20460;-49
2021/09/13 09:51:53;;;;;;;5.07;4.00;;;;;;;;;;5032985;28;20398;-49
2021/09/13 09:54:21;;;;;;;4.30;3.80;;;;;;;;;;5050836;28;20406;-49
2021/09/13 09:56:48;;;;;;;6.37;4.20;;;;;;;;;;5052545;28;20417;-48
2021/09/13 09:59:17;;;;;;;7.33;5.33;;;;;;;;;;5050618;28;20443;-49
2021/09/13 10:01:44;;;;;;;7.03;4.57;;;;;;;;;;5045594;28;20424;-49
2021/09/13 10:04:13;;;;;;;4.10;3.80;;;;;;;;;;5052459;28;20432;-49
2021/09/13 10:06:43;;;;;;;4.97;4.00;;;;;;;;;;5052506;28;20542;-49
2021/09/13 10:09:10;;;;;;;5.60;5.10;;;;;;;;;;5040325;28;20410;-49
2021/09/13 10:11:39;;;;;;;4.73;4.30;;;;;;;;;;5032505;28;20405;-49
2021/09/13 10:14:05;;;;;;;6.27;3.73;;;;;;;;;;5032600;28;20398;-48
2021/09/13 10:16:31;;;;;;;5.40;4.17;;;;;;;;;;5032835;28;20410;-48
2021/09/13 10:18:58;;;;;;;5.13;3.40;;;;;;;;;;5048032;28;20494;-47
2021/09/13 10:21:24;;;;;;;3.40;3.10;;;;;;;;;;5052296;28;20408;-47
2021/09/13 10:23:50;;;;;;;3.50;3.20;;;;;;;;;;5052041;28;20417;-48
2021/09/13 10:26:17;;;;;;;4.07;3.27;;;;;;;;;;5048748;28;20457;-48
2021/09/13 10:29:01;;;;;;;3.10;2.87;;;;;;;;;;5052209;28;20508;-48
2021/09/13 10:31:46;;;;;;;7.20;3.20;;;;;;;;;;5050433;28;20428;-48
2021/09/13 10:34:15;;;;;;;8.37;3.47;;;;;;;;;;5051753;28;20420;-51
2021/09/13 10:37:02;;;;;;;4.47;3.97;;;;;;;;;;5034029;28;20415;-48
2021/09/13 10:39:46;;;;;;;7.83;3.70;;;;;;;;;;5033240;28;20414;-48
2021/09/13 10:42:31;;;;;;;5.60;2.80;;;;;;;;;;5032078;28;20416;-48
2021/09/13 10:45:09;;;;;;;4.03;3.17;;;;;;;;;;5031949;28;20390;-49
2021/09/13 10:47:36;;;;;;;3.20;2.70;;;;;;;;;;5032922;28;20508;-50
2021/09/13 10:50:20;;;;;;;2.60;2.50;;;;;;;;;;5032012;28;20401;-48
2021/09/13 10:52:47;;;;;;;3.77;2.20;;;;;;;;;;5031884;28;20414;-48
2021/09/13 10:55:13;;;;;;;3.73;3.20;;;;;;;;;;5032971;28;20921;-48
2021/09/13 10:57:54;;;;;;;5.20;2.53;;;;;;;;;;5031697;28;20516;-48
2021/09/13 11:00:38;;;;;;;2.90;2.70;;;;;;;;;;5031867;28;20440;-50
2021/09/13 11:03:22;;;;;;;4.50;3.10;;;;;;;;;;5056336;28;20524;-51
2021/09/13 11:08:42;;;;;;;5.03;2.93;;;;;;;;;;5039166;28;20808;-49
2021/09/13 11:11:09;;;;;;;4.80;2.40;;;;;;;;;;5031752;28;21334;-50
2021/09/13 11:13:35;;;;;;;3.13;2.60;;;;;;;;;;5042612;28;20425;-49
2021/09/13 11:16:01;;;;;;;4.77;2.50;;;;;;;;;;5051322;28;21131;-50
2021/09/13 11:18:46;;;;;;;2.60;2.40;;;;;;;;;;5051309;28;20464;-50
2021/09/13 11:21:13;;;;;;;5.03;2.80;;;;;;;;;;5051522;28;20942;-49
2021/09/13 11:23:39;;;;;;;3.37;2.30;;;;;;;;;;5051515;28;20543;-49
2021/09/13 11:26:05;;;;;;;3.47;2.63;;;;;;;;;;5051107;28;20535;-51
2021/09/13 11:28:31;;;;;;;2.83;2.30;;;;;;;;;;5048468;28;20992;-49
2021/09/13 11:30:57;;;;;;;2.50;2.30;;;;;;;;;;5049706;28;20409;-49
2021/09/13 11:33:23;;;;;;;2.70;2.20;;;;;;;;;;5033363;28;20766;-49
2021/09/13 11:35:55;;;;;;;4.30;3.30;;;;;;;;;;5051210;28;20408;-49
2021/09/13 11:38:21;;;;;;;2.60;2.40;;;;;;;;;;5032566;28;20530;-49
2021/09/13 11:40:47;;;;;;;2.63;2.43;;;;;;;;;;5047836;28;20421;-50
2021/09/13 11:43:13;;;;;;;4.50;2.10;;;;;;;;;;5033436;28;20422;-50
2021/09/13 11:45:39;;;;;;;3.43;2.30;;;;;;;;;;5030967;28;20503;-49
2021/09/13 11:48:06;;;;;;;3.10;2.37;;;;;;;;;;5035790;28;20813;-49
2021/09/13 11:50:34;;;;;;;3.27;2.80;;;;;;;;;;5035272;28;20496;-49
2021/09/13 11:53:11;;;;;;;3.40;2.77;;;;;;;;;;5051103;28;20974;-49
2021/09/13 11:55:37;;;;;;;3.30;3.00;;;;;;;;;;5042513;28;20425;-49
2021/09/13 11:58:06;;;;;;;5.57;4.20;;;;;;;;;;5036190;28;20437;-49
2021/09/13 12:00:35;;;;;;;7.83;4.13;;;;;;;;;;5034968;28;20406;-48
2021/09/13 12:03:05;;;;;;;4.27;3.77;;;;;;;;;;5034934;28;20422;-49
2021/09/13 12:05:35;;;;;;;5.10;3.40;;;;;;;;;;5034872;28;20881;-49
2021/09/13 12:08:02;;;;;;;4.03;3.50;;;;;;;;;;5035865;28;20441;-49
2021/09/13 12:10:29;;;;;;;6.93;3.27;;;;;;;;;;5035903;28;20418;-49
2021/09/13 12:12:57;;;;;;;4.30;3.10;;;;;;;;;;5034795;28;20979;-50
2021/09/13 12:15:27;;;;;;;3.87;3.37;;;;;;;;;;5034827;28;20784;-49
2021/09/13 12:17:54;;;;;;;4.40;3.70;;;;;;;;;;5035627;28;20521;-49
2021/09/13 12:20:20;;;;;;;4.87;3.70;;;;;;;;;;5034741;28;20398;-49
2021/09/13 12:22:48;;;;;;;4.30;3.90;;;;;;;;;;5034937;28;20471;-49
2021/09/13 12:25:19;;;;;;;5.03;4.53;;;;;;;;;;5053880;28;20459;-49
2021/09/13 12:27:49;;;;;;;5.67;4.60;;;;;;;;;;5052627;28;20812;-49
2021/09/13 12:30:16;;;;;;;4.60;4.07;;;;;;;;;;5054549;28;20789;-49
2021/09/13 12:32:49;;;;;;;4.80;4.03;;;;;;;;;;5054050;28;20539;-49
2021/09/13 12:35:15;;;;;;;5.57;4.03;;;;;;;;;;5059301;28;20424;-49
2021/09/13 12:37:41;;;;;;;6.60;4.20;;;;;;;;;;5049686;28;20468;-49
2021/09/13 12:40:12;;;;;;;5.80;3.97;;;;;;;;;;5034379;28;20430;-49
2021/09/13 12:42:58;;;;;;;6.50;4.77;;;;;;;;;;5034210;28;20428;-49
2021/09/13 12:45:29;;;;;;;4.50;4.10;;;;;;;;;;5033903;28;20552;-49
2021/09/13 12:48:00;;;;;;;4.30;3.90;;;;;;;;;;5034801;28;20429;-49
2021/09/13 12:50:28;;;;;;;4.67;4.10;;;;;;;;;;5034361;28;20398;-49
2021/09/13 12:52:55;;;;;;;5.67;4.50;;;;;;;;;;5034001;28;20425;-49
2021/09/13 12:55:22;;;;;;;4.63;4.23;;;;;;;;;;5017520;28;20509;-49
2021/09/13 12:57:48;;;;;;;4.10;3.80;;;;;;;;;;5033323;28;20424;-50
2021/09/13 13:00:15;;;;;;;4.20;3.70;;;;;;;;;;5054619;28;20420;-49
2021/09/13 13:02:43;;;;;;;6.00;3.10;;;;;;;;;;5073335;28;20904;-50
2021/09/13 13:05:28;;;;;;;6.03;3.83;;;;;;;;;;5053312;28;20559;-50
2021/09/13 13:07:54;;;;;;;3.67;3.10;;;;;;;;;;5046566;28;20488;-50
2021/09/13 13:10:20;;;;;;;5.40;3.73;;;;;;;;;;5033839;28;20878;-49
2021/09/13 13:12:46;;;;;;;3.87;3.57;;;;;;;;;;5033530;28;20441;-49
2021/09/13 13:15:13;;;;;;;3.63;3.33;;;;;;;;;;5033480;28;20430;-49
2021/09/13 13:17:39;;;;;;;5.43;3.50;;;;;;;;;;5034546;28;20948;-49
2021/09/13 13:20:06;;;;;;;4.63;3.70;;;;;;;;;;5033644;28;20878;-49
2021/09/13 13:22:32;;;;;;;4.13;3.83;;;;;;;;;;5045918;28;20433;-49
2021/09/13 13:24:58;;;;;;;4.50;4.00;;;;;;;;;;5053443;28;20766;-49
2021/09/13 13:27:24;;;;;;;4.37;4.07;;;;;;;;;;5044655;28;20511;-50
2021/09/13 13:29:50;;;;;;;5.87;3.80;;;;;;;;;;5033422;28;20406;-49
2021/09/13 13:32:16;;;;;;;6.90;4.30;;;;;;;;;;5033431;28;20414;-48
2021/09/13 13:34:42;;;;;;;5.30;4.67;;;;;;;;;;5035170;28;20398;-50
2021/09/13 13:37:08;;;;;;;5.23;3.93;;;;;;;;;;5051187;28;20608;-49
2021/09/13 13:39:33;;;;;;;3.70;3.40;;;;;;;;;;5053268;28;20405;-49
2021/09/13 13:41:59;;;;;;;4.97;4.57;;;;;;;;;;5050272;28;20535;-49
2021/09/13 13:44:25;;;;;;;5.40;4.57;;;;;;;;;;5034296;28;20428;-49
2021/09/13 13:46:51;;;;;;;4.00;3.70;;;;;;;;;;5032900;28;20457;-49
2021/09/13 13:49:17;;;;;;;4.73;3.80;;;;;;;;;;5043491;28;20784;-49
2021/09/13 13:51:43;;;;;;;4.17;3.77;;;;;;;;;;5052096;28;20449;-49
2021/09/13 13:54:09;;;;;;;5.03;3.90;;;;;;;;;;5051236;28;20439;-49
2021/09/13 13:56:35;;;;;;;5.30;3.97;;;;;;;;;;5052275;28;20405;-49
2021/09/13 13:59:01;;;;;;;9.80;3.80;;;;;;;;;;5052696;28;20943;-49
2021/09/13 14:01:31;;;;;;;4.77;4.33;;;;;;;;;;5052403;28;20877;-49
2021/09/13 14:03:57;;;;;;;4.77;4.37;;;;;;;;;;5034458;28;20430;-49
2021/09/13 14:06:23;;;;;;;4.80;4.40;;;;;;;;;;5032557;28;20820;-49
2021/09/13 14:08:49;;;;;;;4.53;3.57;;;;;;;;;;5033166;28;20813;-49
2021/09/13 14:11:15;;;;;;;4.37;3.87;;;;;;;;;;5032364;28;20410;-49
2021/09/13 14:13:41;;;;;;;5.00;4.47;;;;;;;;;;5032614;28;20418;-49
2021/09/13 14:16:07;;;;;;;4.70;4.30;;;;;;;;;;5037860;28;20555;-49
2021/09/13 14:18:33;;;;;;;5.40;3.90;;;;;;;;;;5050379;28;20433;-49
2021/09/13 14:20:59;;;;;;;4.90;4.40;;;;;;;;;;5052391;28;20406;-49
2021/09/13 14:23:25;;;;;;;5.13;3.93;;;;;;;;;;5050741;28;20773;-49
2021/09/13 14:25:51;;;;;;;6.30;4.70;;;;;;;;;;5051641;28;20515;-49
2021/09/13 14:28:17;;;;;;;5.40;4.10;;;;;;;;;;5051914;28;20432;-49
2021/09/13 14:30:43;;;;;;;5.60;3.97;;;;;;;;;;5038341;28;20417;-51
2021/09/13 14:33:09;;;;;;;4.73;3.80;;;;;;;;;;5032280;28;20398;-49
2021/09/13 14:35:35;;;;;;;4.83;4.43;;;;;;;;;;5032243;28;20967;-49
2021/09/13 14:38:04;;;;;;;3.67;3.40;;;;;;;;;;5032919;28;20476;-49
2021/09/13 14:40:30;;;;;;;7.70;3.80;;;;;;;;;;5031946;28;20413;-49